sensor_id;sensor_type;location;lat;lon;timestamp;P1;durP1;ratioP1;P2;durP2;ratioP2
3733;SDS011;1882;52.256;8.874;2023-08-17T00:01:52;7.20;;;3.73;;
3733;SDS011;1882;52.256;8.874;2023-08-17T00:04:19;8.00;;;3.87;;
3733;SDS011;1882;52.256;8.874;2023-08-17T00:06:46;6.00;;;3.50;;
3733;SDS011;1882;52.256;8.874;2023-08-17T00:09:13;10.20;;;3.63;;
3733;SDS011;1882;52.256;8.874;2023-08-17T00:11:40;9.43;;;3.77;;
3733;SDS011;1882;52.256;8.874;2023-08-17T00:14:06;7.23;;;3.70;;
3733;SDS011;1882;52.256;8.874;2023-08-17T00:16:35;5.03;;;3.57;;
3733;SDS011;1882;52.256;8.874;2023-08-17T00:19:02;6.97;;;3.83;;
3733;SDS011;1882;52.256;8.874;2023-08-17T00:21:29;9.63;;;3.60;;
3733;SDS011;1882;52.256;8.874;2023-08-17T00:23:56;5.27;;;3.80;;
3733;SDS011;1882;52.256;8.874;2023-08-17T00:26:22;8.13;;;3.63;;
3733;SDS011;1882;52.256;8.874;2023-08-17T00:28:49;9.77;;;4.00;;
3733;SDS011;1882;52.256;8.874;2023-08-17T00:31:19;6.67;;;3.80;;
3733;SDS011;1882;52.256;8.874;2023-08-17T00:33:46;6.13;;;3.93;;
3733;SDS011;1882;52.256;8.874;2023-08-17T00:36:12;5.23;;;4.13;;
3733;SDS011;1882;52.256;8.874;2023-08-17T00:38:39;5.90;;;3.87;;
3733;SDS011;1882;52.256;8.874;2023-08-17T00:41:06;6.20;;;3.70;;
3733;SDS011;1882;52.256;8.874;2023-08-17T00:43:32;10.73;;;4.03;;
3733;SDS011;1882;52.256;8.874;2023-08-17T00:46:01;7.67;;;3.57;;
3733;SDS011;1882;52.256;8.874;2023-08-17T00:48:28;8.83;;;3.37;;
3733;SDS011;1882;52.256;8.874;2023-08-17T00:51:01;7.70;;;3.80;;
3733;SDS011;1882;52.256;8.874;2023-08-17T00:53:33;7.40;;;3.77;;
3733;SDS011;1882;52.256;8.874;2023-08-17T00:56:01;6.30;;;3.80;;
3733;SDS011;1882;52.256;8.874;2023-08-17T00:58:29;7.23;;;3.93;;
3733;SDS011;1882;52.256;8.874;2023-08-17T01:00:58;7.50;;;3.67;;
3733;SDS011;1882;52.256;8.874;2023-08-17T01:03:28;10.60;;;4.17;;
3733;SDS011;1882;52.256;8.874;2023-08-17T01:06:02;7.73;;;4.37;;
3733;SDS011;1882;52.256;8.874;2023-08-17T01:08:33;6.27;;;4.10;;
3733;SDS011;1882;52.256;8.874;2023-08-17T01:16:37;9.40;;;3.93;;
3733;SDS011;1882;52.256;8.874;2023-08-17T01:19:07;7.10;;;4.13;;
3733;SDS011;1882;52.256;8.874;2023-08-17T01:21:38;5.80;;;4.23;;
3733;SDS011;1882;52.256;8.874;2023-08-17T01:24:11;6.40;;;4.53;;
3733;SDS011;1882;52.256;8.874;2023-08-17T01:26:37;5.30;;;3.80;;
3733;SDS011;1882;52.256;8.874;2023-08-17T01:29:04;11.23;;;4.30;;
3733;SDS011;1882;52.256;8.874;2023-08-17T01:31:32;6.60;;;4.20;;
3733;SDS011;1882;52.256;8.874;2023-08-17T01:34:12;5.80;;;3.93;;
3733;SDS011;1882;52.256;8.874;2023-08-17T01:36:58;10.17;;;4.07;;
3733;SDS011;1882;52.256;8.874;2023-08-17T01:39:28;7.20;;;3.77;;
3733;SDS011;1882;52.256;8.874;2023-08-17T01:41:58;7.63;;;4.13;;
3733;SDS011;1882;52.256;8.874;2023-08-17T01:44:26;8.33;;;3.87;;
3733;SDS011;1882;52.256;8.874;2023-08-17T01:46:53;6.63;;;4.40;;
3733;SDS011;1882;52.256;8.874;2023-08-17T01:49:21;8.17;;;4.37;;
3733;SDS011;1882;52.256;8.874;2023-08-17T01:51:48;7.90;;;3.97;;
3733;SDS011;1882;52.256;8.874;2023-08-17T01:54:19;11.67;;;4.50;;
3733;SDS011;1882;52.256;8.874;2023-08-17T01:56:46;7.93;;;4.57;;
3733;SDS011;1882;52.256;8.874;2023-08-17T01:59:13;10.80;;;4.40;;
3733;SDS011;1882;52.256;8.874;2023-08-17T02:01:40;7.13;;;4.40;;
3733;SDS011;1882;52.256;8.874;2023-08-17T02:04:06;6.93;;;4.90;;
3733;SDS011;1882;52.256;8.874;2023-08-17T02:06:33;6.83;;;4.20;;
3733;SDS011;1882;52.256;8.874;2023-08-17T02:09:02;8.10;;;4.70;;
3733;SDS011;1882;52.256;8.874;2023-08-17T02:11:29;10.00;;;4.27;;
3733;SDS011;1882;52.256;8.874;2023-08-17T02:13:55;7.23;;;4.57;;
3733;SDS011;1882;52.256;8.874;2023-08-17T02:16:22;7.00;;;4.50;;
3733;SDS011;1882;52.256;8.874;2023-08-17T02:18:49;7.30;;;5.00;;
3733;SDS011;1882;52.256;8.874;2023-08-17T02:21:16;8.70;;;4.90;;
3733;SDS011;1882;52.256;8.874;2023-08-17T02:23:43;8.47;;;4.77;;
3733;SDS011;1882;52.256;8.874;2023-08-17T02:26:10;9.63;;;4.70;;
3733;SDS011;1882;52.256;8.874;2023-08-17T02:28:37;9.17;;;4.90;;
3733;SDS011;1882;52.256;8.874;2023-08-17T02:31:05;9.70;;;4.73;;
3733;SDS011;1882;52.256;8.874;2023-08-17T02:33:32;7.33;;;5.00;;
3733;SDS011;1882;52.256;8.874;2023-08-17T02:36:00;6.67;;;4.90;;
3733;SDS011;1882;52.256;8.874;2023-08-17T02:38:29;12.97;;;5.93;;
3733;SDS011;1882;52.256;8.874;2023-08-17T02:40:59;8.60;;;5.20;;
3733;SDS011;1882;52.256;8.874;2023-08-17T02:43:25;8.53;;;4.83;;
3733;SDS011;1882;52.256;8.874;2023-08-17T02:45:59;10.70;;;5.10;;
3733;SDS011;1882;52.256;8.874;2023-08-17T02:48:26;11.00;;;4.90;;
3733;SDS011;1882;52.256;8.874;2023-08-17T02:50:57;7.83;;;5.13;;
3733;SDS011;1882;52.256;8.874;2023-08-17T02:53:28;8.83;;;5.50;;
3733;SDS011;1882;52.256;8.874;2023-08-17T02:56:02;15.50;;;5.60;;
3733;SDS011;1882;52.256;8.874;2023-08-17T02:58:32;7.43;;;4.77;;
3733;SDS011;1882;52.256;8.874;2023-08-17T03:01:02;13.00;;;5.70;;
3733;SDS011;1882;52.256;8.874;2023-08-17T03:03:31;11.17;;;5.37;;
3733;SDS011;1882;52.256;8.874;2023-08-17T03:06:02;8.63;;;5.20;;
3733;SDS011;1882;52.256;8.874;2023-08-17T03:08:33;10.23;;;4.90;;
3733;SDS011;1882;52.256;8.874;2023-08-17T03:11:00;10.47;;;5.57;;
3733;SDS011;1882;52.256;8.874;2023-08-17T03:13:39;8.60;;;5.60;;
3733;SDS011;1882;52.256;8.874;2023-08-17T03:16:05;12.97;;;5.40;;
3733;SDS011;1882;52.256;8.874;2023-08-17T03:18:32;9.27;;;5.13;;
3733;SDS011;1882;52.256;8.874;2023-08-17T03:20:59;12.40;;;5.50;;
3733;SDS011;1882;52.256;8.874;2023-08-17T03:23:33;6.80;;;5.40;;
3733;SDS011;1882;52.256;8.874;2023-08-17T03:26:01;9.60;;;5.50;;
3733;SDS011;1882;52.256;8.874;2023-08-17T03:28:31;9.27;;;5.80;;
3733;SDS011;1882;52.256;8.874;2023-08-17T03:31:06;15.23;;;5.70;;
3733;SDS011;1882;52.256;8.874;2023-08-17T03:33:33;10.53;;;5.20;;
3733;SDS011;1882;52.256;8.874;2023-08-17T03:36:00;12.43;;;5.37;;
3733;SDS011;1882;52.256;8.874;2023-08-17T03:38:27;7.33;;;5.80;;
3733;SDS011;1882;52.256;8.874;2023-08-17T03:40:54;13.33;;;6.40;;
3733;SDS011;1882;52.256;8.874;2023-08-17T03:43:22;8.80;;;5.30;;
3733;SDS011;1882;52.256;8.874;2023-08-17T03:45:49;13.47;;;5.83;;
3733;SDS011;1882;52.256;8.874;2023-08-17T03:48:16;8.20;;;5.60;;
3733;SDS011;1882;52.256;8.874;2023-08-17T03:50:42;10.20;;;5.90;;
3733;SDS011;1882;52.256;8.874;2023-08-17T03:53:09;11.60;;;6.00;;
3733;SDS011;1882;52.256;8.874;2023-08-17T03:55:36;11.03;;;5.20;;
3733;SDS011;1882;52.256;8.874;2023-08-17T03:58:02;10.40;;;5.43;;
3733;SDS011;1882;52.256;8.874;2023-08-17T04:00:29;7.50;;;5.53;;
3733;SDS011;1882;52.256;8.874;2023-08-17T04:02:57;7.77;;;5.73;;
3733;SDS011;1882;52.256;8.874;2023-08-17T04:05:24;9.13;;;5.90;;
3733;SDS011;1882;52.256;8.874;2023-08-17T04:07:58;15.53;;;6.40;;
3733;SDS011;1882;52.256;8.874;2023-08-17T04:10:28;16.50;;;5.60;;
3733;SDS011;1882;52.256;8.874;2023-08-17T04:12:58;8.70;;;5.13;;
3733;SDS011;1882;52.256;8.874;2023-08-17T04:15:25;9.93;;;5.53;;
3733;SDS011;1882;52.256;8.874;2023-08-17T04:17:52;11.73;;;6.00;;
3733;SDS011;1882;52.256;8.874;2023-08-17T04:20:19;12.53;;;5.57;;
3733;SDS011;1882;52.256;8.874;2023-08-17T04:22:45;10.43;;;5.80;;
3733;SDS011;1882;52.256;8.874;2023-08-17T04:25:12;9.13;;;5.40;;
3733;SDS011;1882;52.256;8.874;2023-08-17T04:27:39;12.17;;;5.53;;
3733;SDS011;1882;52.256;8.874;2023-08-17T04:30:09;13.13;;;5.70;;
3733;SDS011;1882;52.256;8.874;2023-08-17T04:32:52;9.10;;;5.37;;
3733;SDS011;1882;52.256;8.874;2023-08-17T04:35:20;9.73;;;5.20;;
3733;SDS011;1882;52.256;8.874;2023-08-17T04:37:47;9.50;;;5.63;;
3733;SDS011;1882;52.256;8.874;2023-08-17T04:40:14;12.07;;;5.03;;
3733;SDS011;1882;52.256;8.874;2023-08-17T04:42:41;9.30;;;5.80;;
3733;SDS011;1882;52.256;8.874;2023-08-17T04:45:09;8.77;;;5.67;;
3733;SDS011;1882;52.256;8.874;2023-08-17T04:47:39;8.60;;;5.80;;
3733;SDS011;1882;52.256;8.874;2023-08-17T04:50:09;10.97;;;5.60;;
3733;SDS011;1882;52.256;8.874;2023-08-17T04:52:40;12.53;;;5.77;;
3733;SDS011;1882;52.256;8.874;2023-08-17T04:55:14;10.00;;;5.50;;
3733;SDS011;1882;52.256;8.874;2023-08-17T04:57:41;8.73;;;5.60;;
3733;SDS011;1882;52.256;8.874;2023-08-17T05:00:10;11.30;;;5.90;;
3733;SDS011;1882;52.256;8.874;2023-08-17T05:02:38;10.53;;;5.13;;
3733;SDS011;1882;52.256;8.874;2023-08-17T05:05:06;9.87;;;5.87;;
3733;SDS011;1882;52.256;8.874;2023-08-17T05:07:34;7.80;;;5.37;;
3733;SDS011;1882;52.256;8.874;2023-08-17T05:10:03;16.47;;;5.53;;
3733;SDS011;1882;52.256;8.874;2023-08-17T05:12:33;10.47;;;5.70;;
3733;SDS011;1882;52.256;8.874;2023-08-17T05:15:00;13.50;;;6.00;;
3733;SDS011;1882;52.256;8.874;2023-08-17T05:17:27;7.30;;;5.30;;
3733;SDS011;1882;52.256;8.874;2023-08-17T05:19:54;12.00;;;5.83;;
3733;SDS011;1882;52.256;8.874;2023-08-17T05:22:28;8.47;;;5.47;;
3733;SDS011;1882;52.256;8.874;2023-08-17T05:24:55;7.40;;;5.70;;
3733;SDS011;1882;52.256;8.874;2023-08-17T05:27:22;8.70;;;5.80;;
3733;SDS011;1882;52.256;8.874;2023-08-17T05:29:49;11.70;;;5.50;;
3733;SDS011;1882;52.256;8.874;2023-08-17T05:32:17;10.87;;;5.73;;
3733;SDS011;1882;52.256;8.874;2023-08-17T05:34:43;8.47;;;6.03;;
3733;SDS011;1882;52.256;8.874;2023-08-17T05:37:10;8.43;;;5.67;;
3733;SDS011;1882;52.256;8.874;2023-08-17T05:39:37;9.63;;;5.33;;
3733;SDS011;1882;52.256;8.874;2023-08-17T05:42:03;9.53;;;5.30;;
3733;SDS011;1882;52.256;8.874;2023-08-17T05:44:30;10.00;;;6.20;;
3733;SDS011;1882;52.256;8.874;2023-08-17T05:46:59;8.07;;;5.83;;
3733;SDS011;1882;52.256;8.874;2023-08-17T05:49:26;17.83;;;6.57;;
3733;SDS011;1882;52.256;8.874;2023-08-17T05:51:52;16.87;;;5.73;;
3733;SDS011;1882;52.256;8.874;2023-08-17T05:54:19;13.00;;;6.07;;
3733;SDS011;1882;52.256;8.874;2023-08-17T05:56:46;8.27;;;5.63;;
3733;SDS011;1882;52.256;8.874;2023-08-17T05:59:17;10.67;;;6.10;;
3733;SDS011;1882;52.256;8.874;2023-08-17T06:01:54;15.83;;;6.20;;
3733;SDS011;1882;52.256;8.874;2023-08-17T06:04:23;9.93;;;7.00;;
3733;SDS011;1882;52.256;8.874;2023-08-17T06:06:50;16.70;;;6.90;;
3733;SDS011;1882;52.256;8.874;2023-08-17T06:09:20;10.20;;;7.03;;
3733;SDS011;1882;52.256;8.874;2023-08-17T06:11:49;11.00;;;7.00;;
3733;SDS011;1882;52.256;8.874;2023-08-17T06:14:18;13.40;;;8.53;;
3733;SDS011;1882;52.256;8.874;2023-08-17T06:16:50;12.90;;;8.80;;
3733;SDS011;1882;52.256;8.874;2023-08-17T06:19:27;14.70;;;9.00;;
3733;SDS011;1882;52.256;8.874;2023-08-17T06:21:54;13.90;;;8.27;;
3733;SDS011;1882;52.256;8.874;2023-08-17T06:24:20;16.87;;;9.10;;
3733;SDS011;1882;52.256;8.874;2023-08-17T06:26:47;12.50;;;8.73;;
3733;SDS011;1882;52.256;8.874;2023-08-17T06:29:15;15.90;;;9.40;;
3733;SDS011;1882;52.256;8.874;2023-08-17T06:31:42;15.70;;;10.10;;
3733;SDS011;1882;52.256;8.874;2023-08-17T06:34:09;18.27;;;10.23;;
3733;SDS011;1882;52.256;8.874;2023-08-17T06:36:37;19.63;;;9.60;;
3733;SDS011;1882;52.256;8.874;2023-08-17T06:39:04;11.80;;;9.03;;
3733;SDS011;1882;52.256;8.874;2023-08-17T06:41:31;17.80;;;10.00;;
3733;SDS011;1882;52.256;8.874;2023-08-17T06:44:00;20.60;;;9.17;;
3733;SDS011;1882;52.256;8.874;2023-08-17T06:46:27;14.97;;;9.57;;
3733;SDS011;1882;52.256;8.874;2023-08-17T06:48:54;14.97;;;8.67;;
3733;SDS011;1882;52.256;8.874;2023-08-17T06:51:21;12.93;;;8.93;;
3733;SDS011;1882;52.256;8.874;2023-08-17T06:53:47;13.87;;;8.67;;
3733;SDS011;1882;52.256;8.874;2023-08-17T06:56:15;16.57;;;8.73;;
3733;SDS011;1882;52.256;8.874;2023-08-17T06:58:45;16.60;;;8.90;;
3733;SDS011;1882;52.256;8.874;2023-08-17T07:01:12;14.00;;;9.43;;
3733;SDS011;1882;52.256;8.874;2023-08-17T07:03:39;15.67;;;9.47;;
3733;SDS011;1882;52.256;8.874;2023-08-17T07:06:05;11.00;;;8.50;;
3733;SDS011;1882;52.256;8.874;2023-08-17T07:08:32;12.33;;;8.63;;
3733;SDS011;1882;52.256;8.874;2023-08-17T07:11:04;15.33;;;8.83;;
3733;SDS011;1882;52.256;8.874;2023-08-17T07:13:32;14.70;;;8.60;;
3733;SDS011;1882;52.256;8.874;2023-08-17T07:16:01;18.80;;;9.40;;
3733;SDS011;1882;52.256;8.874;2023-08-17T07:18:38;11.43;;;8.70;;
3733;SDS011;1882;52.256;8.874;2023-08-17T07:21:04;15.50;;;10.00;;
3733;SDS011;1882;52.256;8.874;2023-08-17T07:23:31;20.43;;;9.87;;
3733;SDS011;1882;52.256;8.874;2023-08-17T07:26:07;16.30;;;9.10;;
3733;SDS011;1882;52.256;8.874;2023-08-17T07:28:38;18.37;;;8.70;;
3733;SDS011;1882;52.256;8.874;2023-08-17T07:31:04;18.77;;;8.80;;
3733;SDS011;1882;52.256;8.874;2023-08-17T07:33:33;15.10;;;9.03;;
3733;SDS011;1882;52.256;8.874;2023-08-17T07:36:00;15.07;;;8.67;;
3733;SDS011;1882;52.256;8.874;2023-08-17T07:38:26;14.53;;;8.83;;
3733;SDS011;1882;52.256;8.874;2023-08-17T07:40:54;12.77;;;8.90;;
3733;SDS011;1882;52.256;8.874;2023-08-17T07:43:21;11.10;;;8.97;;
3733;SDS011;1882;52.256;8.874;2023-08-17T07:45:54;30.13;;;9.27;;
3733;SDS011;1882;52.256;8.874;2023-08-17T07:48:21;14.50;;;8.80;;
3733;SDS011;1882;52.256;8.874;2023-08-17T07:50:49;14.30;;;9.40;;
3733;SDS011;1882;52.256;8.874;2023-08-17T07:53:17;15.27;;;9.47;;
3733;SDS011;1882;52.256;8.874;2023-08-17T07:55:45;11.33;;;8.40;;
3733;SDS011;1882;52.256;8.874;2023-08-17T07:58:12;23.13;;;10.20;;
3733;SDS011;1882;52.256;8.874;2023-08-17T08:00:38;20.33;;;9.67;;
3733;SDS011;1882;52.256;8.874;2023-08-17T08:03:05;14.73;;;9.00;;
3733;SDS011;1882;52.256;8.874;2023-08-17T08:05:32;18.63;;;8.83;;
3733;SDS011;1882;52.256;8.874;2023-08-17T08:07:59;13.50;;;9.27;;
3733;SDS011;1882;52.256;8.874;2023-08-17T08:10:26;11.87;;;8.50;;
3733;SDS011;1882;52.256;8.874;2023-08-17T08:12:53;14.80;;;8.47;;
3733;SDS011;1882;52.256;8.874;2023-08-17T08:15:20;14.73;;;8.47;;
3733;SDS011;1882;52.256;8.874;2023-08-17T08:17:47;11.93;;;8.70;;
3733;SDS011;1882;52.256;8.874;2023-08-17T08:20:14;11.33;;;8.53;;
3733;SDS011;1882;52.256;8.874;2023-08-17T08:22:41;12.50;;;8.70;;
3733;SDS011;1882;52.256;8.874;2023-08-17T08:25:07;14.33;;;8.77;;
3733;SDS011;1882;52.256;8.874;2023-08-17T08:27:45;16.00;;;8.70;;
3733;SDS011;1882;52.256;8.874;2023-08-17T08:30:15;17.70;;;9.27;;
3733;SDS011;1882;52.256;8.874;2023-08-17T08:32:41;14.40;;;9.30;;
3733;SDS011;1882;52.256;8.874;2023-08-17T08:35:08;12.27;;;8.83;;
3733;SDS011;1882;52.256;8.874;2023-08-17T08:37:44;15.80;;;9.00;;
3733;SDS011;1882;52.256;8.874;2023-08-17T08:40:11;12.23;;;8.90;;
3733;SDS011;1882;52.256;8.874;2023-08-17T08:42:39;16.17;;;9.67;;
3733;SDS011;1882;52.256;8.874;2023-08-17T08:45:08;15.20;;;8.90;;
3733;SDS011;1882;52.256;8.874;2023-08-17T08:47:35;14.53;;;9.30;;
3733;SDS011;1882;52.256;8.874;2023-08-17T08:50:10;15.70;;;9.53;;
3733;SDS011;1882;52.256;8.874;2023-08-17T08:52:49;11.63;;;9.60;;
3733;SDS011;1882;52.256;8.874;2023-08-17T08:55:29;12.80;;;9.73;;
3733;SDS011;1882;52.256;8.874;2023-08-17T08:57:57;14.07;;;9.93;;
3733;SDS011;1882;52.256;8.874;2023-08-17T09:00:25;15.80;;;9.43;;
3733;SDS011;1882;52.256;8.874;2023-08-17T09:02:52;12.93;;;9.20;;
3733;SDS011;1882;52.256;8.874;2023-08-17T09:05:20;15.13;;;10.03;;
3733;SDS011;1882;52.256;8.874;2023-08-17T09:07:48;11.87;;;9.77;;
3733;SDS011;1882;52.256;8.874;2023-08-17T09:10:15;12.27;;;9.40;;
3733;SDS011;1882;52.256;8.874;2023-08-17T09:12:46;12.37;;;9.80;;
3733;SDS011;1882;52.256;8.874;2023-08-17T09:15:14;14.50;;;10.50;;
3733;SDS011;1882;52.256;8.874;2023-08-17T09:17:41;12.47;;;10.00;;
3733;SDS011;1882;52.256;8.874;2023-08-17T09:20:33;13.23;;;9.87;;
3733;SDS011;1882;52.256;8.874;2023-08-17T09:23:17;13.63;;;10.37;;
3733;SDS011;1882;52.256;8.874;2023-08-17T09:25:47;10.33;;;9.23;;
3733;SDS011;1882;52.256;8.874;2023-08-17T09:28:16;11.70;;;9.27;;
3733;SDS011;1882;52.256;8.874;2023-08-17T09:33:28;10.97;;;8.70;;
3733;SDS011;1882;52.256;8.874;2023-08-17T09:35:56;13.73;;;9.40;;
3733;SDS011;1882;52.256;8.874;2023-08-17T09:38:25;12.30;;;9.03;;
3733;SDS011;1882;52.256;8.874;2023-08-17T09:40:54;11.73;;;8.60;;
3733;SDS011;1882;52.256;8.874;2023-08-17T09:43:31;13.10;;;9.87;;
3733;SDS011;1882;52.256;8.874;2023-08-17T09:46:00;13.43;;;9.30;;
3733;SDS011;1882;52.256;8.874;2023-08-17T09:48:31;12.53;;;9.53;;
3733;SDS011;1882;52.256;8.874;2023-08-17T09:50:59;12.33;;;8.77;;
3733;SDS011;1882;52.256;8.874;2023-08-17T09:53:35;13.60;;;8.80;;
3733;SDS011;1882;52.256;8.874;2023-08-17T09:56:05;11.90;;;9.57;;
3733;SDS011;1882;52.256;8.874;2023-08-17T09:58:43;13.17;;;9.50;;
3733;SDS011;1882;52.256;8.874;2023-08-17T10:01:11;10.63;;;8.30;;
3733;SDS011;1882;52.256;8.874;2023-08-17T10:03:42;11.57;;;8.40;;
3733;SDS011;1882;52.256;8.874;2023-08-17T10:06:10;14.83;;;8.83;;
3733;SDS011;1882;52.256;8.874;2023-08-17T10:08:52;11.80;;;7.60;;
3733;SDS011;1882;52.256;8.874;2023-08-17T10:11:20;8.30;;;7.50;;
3733;SDS011;1882;52.256;8.874;2023-08-17T10:16:36;8.80;;;7.53;;
3733;SDS011;1882;52.256;8.874;2023-08-17T10:21:56;7.93;;;6.97;;
3733;SDS011;1882;52.256;8.874;2023-08-17T10:24:30;6.90;;;6.20;;
3733;SDS011;1882;52.256;8.874;2023-08-17T10:26:59;7.83;;;6.70;;
3733;SDS011;1882;52.256;8.874;2023-08-17T10:29:26;7.07;;;6.20;;
3733;SDS011;1882;52.256;8.874;2023-08-17T10:31:53;10.83;;;6.50;;
3733;SDS011;1882;52.256;8.874;2023-08-17T10:34:19;7.30;;;6.60;;
3733;SDS011;1882;52.256;8.874;2023-08-17T10:36:49;7.43;;;6.73;;
3733;SDS011;1882;52.256;8.874;2023-08-17T10:39:23;11.97;;;7.07;;
3733;SDS011;1882;52.256;8.874;2023-08-17T10:41:55;7.80;;;7.10;;
3733;SDS011;1882;52.256;8.874;2023-08-17T10:52:34;10.27;;;6.63;;
3733;SDS011;1882;52.256;8.874;2023-08-17T10:55:04;8.23;;;6.07;;
3733;SDS011;1882;52.256;8.874;2023-08-17T10:57:33;6.37;;;5.53;;
3733;SDS011;1882;52.256;8.874;2023-08-17T11:00:14;8.70;;;6.30;;
3733;SDS011;1882;52.256;8.874;2023-08-17T11:02:52;7.90;;;5.60;;
3733;SDS011;1882;52.256;8.874;2023-08-17T11:08:11;6.13;;;5.60;;
3733;SDS011;1882;52.256;8.874;2023-08-17T11:10:59;8.60;;;5.63;;
3733;SDS011;1882;52.256;8.874;2023-08-17T11:13:28;7.30;;;6.60;;
3733;SDS011;1882;52.256;8.874;2023-08-17T11:15:57;9.97;;;5.70;;
3733;SDS011;1882;52.256;8.874;2023-08-17T11:18:29;7.40;;;6.07;;
3733;SDS011;1882;52.256;8.874;2023-08-17T11:20:56;7.17;;;6.10;;
3733;SDS011;1882;52.256;8.874;2023-08-17T11:23:23;6.73;;;5.70;;
3733;SDS011;1882;52.256;8.874;2023-08-17T11:25:54;7.10;;;5.70;;
3733;SDS011;1882;52.256;8.874;2023-08-17T11:28:21;6.20;;;5.20;;
3733;SDS011;1882;52.256;8.874;2023-08-17T11:30:58;7.17;;;5.70;;
3733;SDS011;1882;52.256;8.874;2023-08-17T11:33:29;6.80;;;6.13;;
3733;SDS011;1882;52.256;8.874;2023-08-17T11:35:57;5.73;;;5.23;;
3733;SDS011;1882;52.256;8.874;2023-08-17T11:38:39;9.90;;;6.37;;
3733;SDS011;1882;52.256;8.874;2023-08-17T11:41:06;8.57;;;6.03;;
3733;SDS011;1882;52.256;8.874;2023-08-17T11:43:43;11.40;;;5.73;;
3733;SDS011;1882;52.256;8.874;2023-08-17T11:46:11;8.60;;;6.27;;
3733;SDS011;1882;52.256;8.874;2023-08-17T11:48:38;6.30;;;5.40;;
3733;SDS011;1882;52.256;8.874;2023-08-17T11:51:04;6.60;;;5.33;;
3733;SDS011;1882;52.256;8.874;2023-08-17T11:53:35;8.37;;;5.90;;
3733;SDS011;1882;52.256;8.874;2023-08-17T11:56:02;6.00;;;5.40;;
3733;SDS011;1882;52.256;8.874;2023-08-17T12:01:09;9.07;;;6.00;;
3733;SDS011;1882;52.256;8.874;2023-08-17T12:03:37;7.43;;;5.30;;
3733;SDS011;1882;52.256;8.874;2023-08-17T12:06:04;8.30;;;5.00;;
3733;SDS011;1882;52.256;8.874;2023-08-17T12:08:31;8.33;;;5.13;;
3733;SDS011;1882;52.256;8.874;2023-08-17T12:11:01;5.60;;;4.80;;
3733;SDS011;1882;52.256;8.874;2023-08-17T12:13:38;5.70;;;4.70;;
3733;SDS011;1882;52.256;8.874;2023-08-17T12:16:04;8.17;;;4.10;;
3733;SDS011;1882;52.256;8.874;2023-08-17T12:18:32;5.00;;;3.77;;
3733;SDS011;1882;52.256;8.874;2023-08-17T12:21:00;5.63;;;3.77;;
3733;SDS011;1882;52.256;8.874;2023-08-17T12:23:27;6.37;;;4.60;;
3733;SDS011;1882;52.256;8.874;2023-08-17T12:25:54;6.57;;;5.67;;
3733;SDS011;1882;52.256;8.874;2023-08-17T12:28:22;6.30;;;5.40;;
3733;SDS011;1882;52.256;8.874;2023-08-17T12:30:59;7.80;;;5.80;;
3733;SDS011;1882;52.256;8.874;2023-08-17T12:33:29;8.10;;;5.97;;
3733;SDS011;1882;52.256;8.874;2023-08-17T12:36:00;9.27;;;5.83;;
3733;SDS011;1882;52.256;8.874;2023-08-17T12:38:29;10.63;;;5.97;;
3733;SDS011;1882;52.256;8.874;2023-08-17T12:40:56;8.70;;;5.70;;
3733;SDS011;1882;52.256;8.874;2023-08-17T12:43:22;7.67;;;5.13;;
3733;SDS011;1882;52.256;8.874;2023-08-17T12:45:49;9.47;;;5.93;;
3733;SDS011;1882;52.256;8.874;2023-08-17T12:48:17;7.40;;;4.90;;
3733;SDS011;1882;52.256;8.874;2023-08-17T12:50:44;6.30;;;4.90;;
3733;SDS011;1882;52.256;8.874;2023-08-17T12:53:10;6.60;;;5.60;;
3733;SDS011;1882;52.256;8.874;2023-08-17T12:55:37;7.63;;;5.50;;
3733;SDS011;1882;52.256;8.874;2023-08-17T12:58:04;7.57;;;5.43;;
3733;SDS011;1882;52.256;8.874;2023-08-17T13:00:33;7.23;;;5.70;;
3733;SDS011;1882;52.256;8.874;2023-08-17T13:03:00;9.40;;;5.63;;
3733;SDS011;1882;52.256;8.874;2023-08-17T13:05:26;8.40;;;6.10;;
3733;SDS011;1882;52.256;8.874;2023-08-17T13:07:53;11.33;;;6.20;;
3733;SDS011;1882;52.256;8.874;2023-08-17T13:10:20;12.30;;;5.80;;
3733;SDS011;1882;52.256;8.874;2023-08-17T13:12:47;6.07;;;5.10;;
3733;SDS011;1882;52.256;8.874;2023-08-17T13:15:14;7.47;;;5.43;;
3733;SDS011;1882;52.256;8.874;2023-08-17T13:17:41;5.93;;;4.90;;
3733;SDS011;1882;52.256;8.874;2023-08-17T13:20:08;8.23;;;5.63;;
3733;SDS011;1882;52.256;8.874;2023-08-17T13:22:35;9.27;;;5.27;;
3733;SDS011;1882;52.256;8.874;2023-08-17T13:25:02;11.60;;;6.40;;
3733;SDS011;1882;52.256;8.874;2023-08-17T13:27:29;7.40;;;5.70;;
3733;SDS011;1882;52.256;8.874;2023-08-17T13:29:56;9.13;;;6.37;;
3733;SDS011;1882;52.256;8.874;2023-08-17T13:32:25;12.67;;;7.20;;
3733;SDS011;1882;52.256;8.874;2023-08-17T13:34:53;11.20;;;6.80;;
3733;SDS011;1882;52.256;8.874;2023-08-17T13:37:19;13.60;;;7.27;;
3733;SDS011;1882;52.256;8.874;2023-08-17T13:39:46;9.57;;;6.87;;
3733;SDS011;1882;52.256;8.874;2023-08-17T13:42:13;11.70;;;6.60;;
3733;SDS011;1882;52.256;8.874;2023-08-17T13:44:40;11.20;;;7.20;;
3733;SDS011;1882;52.256;8.874;2023-08-17T13:47:07;11.80;;;6.67;;
3733;SDS011;1882;52.256;8.874;2023-08-17T13:49:33;11.87;;;7.03;;
3733;SDS011;1882;52.256;8.874;2023-08-17T13:52:00;12.20;;;6.57;;
3733;SDS011;1882;52.256;8.874;2023-08-17T13:54:27;8.90;;;6.53;;
3733;SDS011;1882;52.256;8.874;2023-08-17T13:56:54;11.80;;;6.80;;
3733;SDS011;1882;52.256;8.874;2023-08-17T13:59:21;10.57;;;6.77;;
3733;SDS011;1882;52.256;8.874;2023-08-17T14:01:48;10.23;;;6.57;;
3733;SDS011;1882;52.256;8.874;2023-08-17T14:04:14;8.83;;;6.23;;
3733;SDS011;1882;52.256;8.874;2023-08-17T14:06:41;8.70;;;6.20;;
3733;SDS011;1882;52.256;8.874;2023-08-17T14:09:08;12.80;;;7.37;;
3733;SDS011;1882;52.256;8.874;2023-08-17T14:11:35;13.73;;;7.23;;
3733;SDS011;1882;52.256;8.874;2023-08-17T14:14:02;9.40;;;6.40;;
3733;SDS011;1882;52.256;8.874;2023-08-17T14:16:29;11.40;;;7.40;;
3733;SDS011;1882;52.256;8.874;2023-08-17T14:18:56;8.30;;;6.13;;
3733;SDS011;1882;52.256;8.874;2023-08-17T14:21:23;11.10;;;6.80;;
3733;SDS011;1882;52.256;8.874;2023-08-17T14:23:50;14.17;;;7.03;;
3733;SDS011;1882;52.256;8.874;2023-08-17T14:26:16;10.67;;;6.53;;
3733;SDS011;1882;52.256;8.874;2023-08-17T14:28:43;11.50;;;7.40;;
3733;SDS011;1882;52.256;8.874;2023-08-17T14:31:10;13.40;;;7.80;;
3733;SDS011;1882;52.256;8.874;2023-08-17T14:33:44;15.33;;;7.10;;
3733;SDS011;1882;52.256;8.874;2023-08-17T14:36:13;10.30;;;7.40;;
3733;SDS011;1882;52.256;8.874;2023-08-17T14:38:45;10.80;;;7.20;;
3733;SDS011;1882;52.256;8.874;2023-08-17T14:41:12;9.30;;;6.83;;
3733;SDS011;1882;52.256;8.874;2023-08-17T14:43:38;12.53;;;7.00;;
3733;SDS011;1882;52.256;8.874;2023-08-17T14:46:08;8.80;;;6.70;;
3733;SDS011;1882;52.256;8.874;2023-08-17T14:48:40;9.00;;;6.40;;
3733;SDS011;1882;52.256;8.874;2023-08-17T14:51:07;10.67;;;7.10;;
3733;SDS011;1882;52.256;8.874;2023-08-17T14:53:33;8.57;;;6.83;;
3733;SDS011;1882;52.256;8.874;2023-08-17T14:56:04;8.70;;;6.57;;
3733;SDS011;1882;52.256;8.874;2023-08-17T14:58:31;15.10;;;7.30;;
3733;SDS011;1882;52.256;8.874;2023-08-17T15:00:58;9.40;;;7.07;;
3733;SDS011;1882;52.256;8.874;2023-08-17T15:03:24;10.90;;;7.30;;
3733;SDS011;1882;52.256;8.874;2023-08-17T15:05:51;8.67;;;6.30;;
3733;SDS011;1882;52.256;8.874;2023-08-17T15:08:21;9.70;;;6.60;;
3733;SDS011;1882;52.256;8.874;2023-08-17T15:10:48;9.93;;;6.30;;
3733;SDS011;1882;52.256;8.874;2023-08-17T15:13:15;9.17;;;6.70;;
3733;SDS011;1882;52.256;8.874;2023-08-17T15:15:42;9.27;;;6.67;;
3733;SDS011;1882;52.256;8.874;2023-08-17T15:18:09;10.03;;;6.23;;
3733;SDS011;1882;52.256;8.874;2023-08-17T15:20:37;8.83;;;6.40;;
3733;SDS011;1882;52.256;8.874;2023-08-17T15:23:03;9.70;;;6.10;;
3733;SDS011;1882;52.256;8.874;2023-08-17T15:25:30;10.50;;;6.70;;
3733;SDS011;1882;52.256;8.874;2023-08-17T15:27:57;9.33;;;6.60;;
3733;SDS011;1882;52.256;8.874;2023-08-17T15:30:23;7.83;;;6.20;;
3733;SDS011;1882;52.256;8.874;2023-08-17T15:32:50;10.20;;;6.53;;
3733;SDS011;1882;52.256;8.874;2023-08-17T15:35:17;9.83;;;6.07;;
3733;SDS011;1882;52.256;8.874;2023-08-17T15:37:43;8.80;;;6.07;;
3733;SDS011;1882;52.256;8.874;2023-08-17T15:40:10;10.40;;;7.10;;
3733;SDS011;1882;52.256;8.874;2023-08-17T15:42:39;11.10;;;6.50;;
3733;SDS011;1882;52.256;8.874;2023-08-17T15:45:08;11.23;;;6.70;;